Time;durP1;ratioP1;P1;durP2;ratioP2;P2;SDS_P1;SDS_P2;PMS_P1;PMS_P2;Temp;Humidity;BMP_temperature;BMP_pressure;BME280_temperature;BME280_humidity;BME280_pressure;Samples;Min_cycle;Max_cycle;Signal;HPM_P1;HPM_P2
2022/04/21 00:02:46;;;;;;;;;;;;;;;;;;5107082;27;1914;-74
2022/04/21 00:05:12;;;;;;;;;;;;;;;;;;5102194;27;1015;-75
2022/04/21 00:07:38;;;;;;;;;;;;;;;;;;5102237;28;1297;-76
2022/04/21 00:10:04;;;;;;;;;;;;;;;;;;5105443;28;1250;-75
2022/04/21 00:12:30;;;;;;;;;;;;;;;;;;5105348;27;1339;-75
2022/04/21 00:14:55;;;;;;;;;;;;;;;;;;5108733;27;1310;-76
2022/04/21 00:17:28;;;;;;;;;;;;;;;;;;5111087;27;1187;-73
2022/04/21 00:19:54;;;;;;;;;;;;;;;;;;5121121;27;1149;-75
2022/04/21 00:25:04;;;;;;;;;;;;;;;;;;5123480;27;1063;-75
2022/04/21 00:27:29;;;;;;;;;;;;;;;;;;5108170;27;1190;-75
2022/04/21 00:29:55;;;;;;;;;;;;;;;;;;5088723;28;1436;-74
2022/04/21 00:32:21;;;;;;;;;;;;;;;;;;5106152;28;1167;-76
2022/04/21 00:34:46;;;;;;;;;;;;;;;;;;5088263;27;1195;-76
2022/04/21 00:37:11;;;;;;;;;;;;;;;;;;5125207;27;1202;-74
2022/04/21 00:39:37;;;;;;;;;;;;;;;;;;5106880;27;1318;-75
2022/04/21 00:42:07;;;;;;;;;;;;;;;;;;5096069;28;1965;-74
2022/04/21 00:44:34;;;;;;;;;;;;;;;;;;5103016;28;1295;-74
2022/04/21 00:47:06;;;;;;;;;;;;;;;;;;5089569;28;1404;-73
2022/04/21 00:49:31;;;;;;;;;;;;;;;;;;5101124;27;1227;-74
2022/04/21 00:51:58;;;;;;;;;;;;;;;;;;5120890;27;1195;-75
2022/04/21 00:54:23;;;;;;;;;;;;;;;;;;5121467;27;1315;-74
2022/04/21 00:56:50;;;;;;;;;;;;;;;;;;5127873;27;1163;-74
2022/04/21 00:59:16;;;;;;;;;;;;;;;;;;5107133;27;1289;-73
2022/04/21 01:04:25;;;;;;;;;;;;;;;;;;5107761;27;1020;-75
2022/04/21 01:06:54;;;;;;;;;;;;;;;;;;5106856;28;1221;-74
2022/04/21 01:09:19;;;;;;;;;;;;;;;;;;5084397;28;1823;-74
2022/04/21 01:11:45;;;;;;;;;;;;;;;;;;5105817;28;1269;-74
2022/04/21 01:14:12;;;;;;;;;;;;;;;;;;5104108;28;1218;-74
2022/04/21 01:16:38;;;;;;;;;;;;;;;;;;5105544;28;1193;-74
2022/04/21 01:19:03;;;;;;;;;;;;;;;;;;5099371;28;1306;-75
2022/04/21 01:21:28;;;;;;;;;;;;;;;;;;5105743;27;1236;-75
2022/04/21 01:23:53;;;;;;;;;;;;;;;;;;5123332;27;1894;-75
2022/04/21 01:26:19;;;;;;;;;;;;;;;;;;5109465;27;1279;-74
2022/04/21 01:28:45;;;;;;;;;;;;;;;;;;5107178;27;1170;-76
2022/04/21 01:31:10;;;;;;;;;;;;;;;;;;5125572;27;1163;-75
2022/04/21 01:33:36;;;;;;;;;;;;;;;;;;5093625;28;1183;-74
2022/04/21 01:36:01;;;;;;;;;;;;;;;;;;5094258;27;1184;-74
2022/04/21 01:41:11;;;;;;;;;;;;;;;;;;5119582;27;1165;-74
2022/04/21 01:43:37;;;;;;;;;;;;;;;;;;5103747;27;1913;-74
2022/04/21 01:46:03;;;;;;;;;;;;;;;;;;5126229;27;1195;-74
2022/04/21 01:48:28;;;;;;;;;;;;;;;;;;5113502;27;1283;-75
2022/04/21 01:50:53;;;;;;;;;;;;;;;;;;5107795;28;1385;-74
2022/04/21 01:53:19;;;;;;;;;;;;;;;;;;5086915;28;1229;-74
2022/04/21 01:55:44;;;;;;;;;;;;;;;;;;5107679;28;1128;-74
2022/04/21 01:58:16;;;;;;;;;;;;;;;;;;5084806;28;1374;-74
2022/04/21 02:00:41;;;;;;;;;;;;;;;;;;5104143;28;1286;-76
2022/04/21 02:03:10;;;;;;;;;;;;;;;;;;5099236;28;1886;-75
2022/04/21 02:05:36;;;;;;;;;;;;;;;;;;5104455;28;1304;-75
2022/04/21 02:08:02;;;;;;;;;;;;;;;;;;5126198;27;1250;-75
2022/04/21 02:10:28;;;;;;;;;;;;;;;;;;5124569;28;1316;-75
2022/04/21 02:12:53;;;;;;;;;;;;;;;;;;5124889;28;1139;-74
2022/04/21 02:15:18;;;;;;;;;;;;;;;;;;5124491;27;1167;-74
2022/04/21 02:17:44;;;;;;;;;;;;;;;;;;5126927;27;1162;-74
2022/04/21 02:20:16;;;;;;;;;;;;;;;;;;5128602;28;1281;-73
2022/04/21 02:22:43;;;;;;;;;;;;;;;;;;5123729;28;1893;-74
2022/04/21 02:25:09;;;;;;;;;;;;;;;;;;5105712;28;1154;-73
2022/04/21 02:27:39;;;;;;;;;;;;;;;;;;5121276;28;1136;-75
2022/04/21 02:30:05;;;;;;;;;;;;;;;;;;5125040;28;1455;-75
2022/04/21 02:32:33;;;;;;;;;;;;;;;;;;5105624;28;1347;-75
2022/04/21 02:34:58;;;;;;;;;;;;;;;;;;5122690;28;1424;-75
2022/04/21 02:37:24;;;;;;;;;;;;;;;;;;5126694;27;1179;-74
2022/04/21 02:39:49;;;;;;;;;;;;;;;;;;5125697;27;1115;-74
2022/04/21 02:42:16;;;;;;;;;;;;;;;;;;5126920;27;1930;-75
2022/04/21 02:44:41;;;;;;;;;;;;;;;;;;5114139;28;1089;-75
2022/04/21 02:47:07;;;;;;;;;;;;;;;;;;5106339;28;1202;-74
2022/04/21 02:49:33;;;;;;;;;;;;;;;;;;5097774;28;1272;-75
2022/04/21 02:51:58;;;;;;;;;;;;;;;;;;5110227;28;1241;-74
2022/04/21 02:57:20;;;;;;;;;;;;;;;;;;5128834;27;1003;-74
2022/04/21 02:59:53;;;;;;;;;;;;;;;;;;5113258;27;1112;-73
2022/04/21 03:02:19;;;;;;;;;;;;;;;;;;5117469;27;1885;-73
2022/04/21 03:04:45;;;;;;;;;;;;;;;;;;5122691;27;1188;-74
2022/04/21 03:07:11;;;;;;;;;;;;;;;;;;5129297;27;1175;-74
2022/04/21 03:09:36;;;;;;;;;;;;;;;;;;5124765;27;1369;-74
2022/04/21 03:12:02;;;;;;;;;;;;;;;;;;5130442;27;1183;-74
2022/04/21 03:14:27;;;;;;;;;;;;;;;;;;5110841;27;1310;-76
2022/04/21 03:16:53;;;;;;;;;;;;;;;;;;5131173;27;1178;-75
2022/04/21 03:19:19;;;;;;;;;;;;;;;;;;5124410;27;1139;-75
2022/04/21 03:24:29;;;;;;;;;;;;;;;;;;5126087;27;1060;-75
2022/04/21 03:26:55;;;;;;;;;;;;;;;;;;5094615;28;1191;-74
2022/04/21 03:29:21;;;;;;;;;;;;;;;;;;5108648;27;1253;-76
2022/04/21 03:31:48;;;;;;;;;;;;;;;;;;5114150;27;1180;-74
2022/04/21 03:34:14;;;;;;;;;;;;;;;;;;5100483;28;1205;-74
2022/04/21 03:39:11;;;;;;;;;;;;;;;;;;5127220;27;1087;-74
2022/04/21 03:41:37;;;;;;;;;;;;;;;;;;5110005;27;1230;-74
2022/04/21 03:44:03;;;;;;;;;;;;;;;;;;5125556;27;1910;-74
2022/04/21 03:46:28;;;;;;;;;;;;;;;;;;5128658;27;1080;-75
2022/04/21 03:48:53;;;;;;;;;;;;;;;;;;5122000;27;1174;-75
2022/04/21 03:51:20;;;;;;;;;;;;;;;;;;5129439;27;1231;-75
2022/04/21 03:53:46;;;;;;;;;;;;;;;;;;5109592;27;1372;-74
2022/04/21 03:56:11;;;;;;;;;;;;;;;;;;5129218;27;1262;-74
2022/04/21 03:58:36;;;;;;;;;;;;;;;;;;5108315;27;1247;-75
2022/04/21 04:01:02;;;;;;;;;;;;;;;;;;5109925;27;1264;-75
2022/04/21 04:03:27;;;;;;;;;;;;;;;;;;5114801;27;1889;-74
2022/04/21 04:05:52;;;;;;;;;;;;;;;;;;5106882;28;1219;-74
2022/04/21 04:11:02;;;;;;;;;;;;;;;;;;5128374;27;975;-74
2022/04/21 04:13:27;;;;;;;;;;;;;;;;;;5124010;27;1095;-76
2022/04/21 04:15:54;;;;;;;;;;;;;;;;;;5107975;28;1230;-74
2022/04/21 04:18:20;;;;;;;;;;;;;;;;;;5118313;27;1218;-74
2022/04/21 04:20:46;;;;;;;;;;;;;;;;;;5125997;27;1345;-75
2022/04/21 04:23:18;;;;;;;;;;;;;;;;;;5123888;27;1890;-74
2022/04/21 04:25:44;;;;;;;;;;;;;;;;;;5127611;27;1201;-74
2022/04/21 04:28:12;;;;;;;;;;;;;;;;;;5124485;27;1211;-75
2022/04/21 04:30:40;;;;;;;;;;;;;;;;;;5105843;27;1072;-74
2022/04/21 04:33:06;;;;;;;;;;;;;;;;;;5124279;27;1087;-76
2022/04/21 04:35:31;;;;;;;;;;;;;;;;;;5113024;27;1139;-75
2022/04/21 04:37:58;;;;;;;;;;;;;;;;;;5107202;28;1226;-75
2022/04/21 04:40:32;;;;;;;;;;;;;;;;;;5106664;28;1392;-74
2022/04/21 04:42:58;;;;;;;;;;;;;;;;;;5123093;27;1901;-75
2022/04/21 04:48:10;;;;;;;;;;;;;;;;;;5125466;27;1219;-75
2022/04/21 04:50:36;;;;;;;;;;;;;;;;;;5124841;27;1309;-76
2022/04/21 04:53:01;;;;;;;;;;;;;;;;;;5126466;27;1151;-73
2022/04/21 04:55:30;;;;;;;;;;;;;;;;;;5126812;27;1124;-74
2022/04/21 04:57:55;;;;;;;;;;;;;;;;;;5127257;27;1323;-73
2022/04/21 05:00:21;;;;;;;;;;;;;;;;;;5118301;27;1264;-75
2022/04/21 05:02:46;;;;;;;;;;;;;;;;;;5088523;28;1890;-75
2022/04/21 05:05:14;;;;;;;;;;;;;;;;;;5101709;28;1296;-75
2022/04/21 05:07:39;;;;;;;;;;;;;;;;;;5107906;27;1301;-75
2022/04/21 05:10:08;;;;;;;;;;;;;;;;;;5128772;27;1162;-74
2022/04/21 05:12:34;;;;;;;;;;;;;;;;;;5126164;27;1107;-74
2022/04/21 05:14:59;;;;;;;;;;;;;;;;;;5127067;27;1179;-74
2022/04/21 05:17:29;;;;;;;;;;;;;;;;;;5126685;27;1258;-74
2022/04/21 05:19:55;;;;;;;;;;;;;;;;;;5120990;27;1147;-75
2022/04/21 05:22:37;;;;;;;;;;;;;;;;;;;;;
2022/04/21 05:25:04;;;;;;;;;;;;;;;;;;5127135;27;1067;-74
2022/04/21 05:27:32;;;;;;;;;;;;;;;;;;5123840;27;1234;-75
2022/04/21 05:32:42;;;;;;;;;;;;;;;;;;5123031;27;1071;-75
2022/04/21 05:35:08;;;;;;;;;;;;;;;;;;5089480;28;1303;-75
2022/04/21 05:37:37;;;;;;;;;;;;;;;;;;5105211;28;1134;-75
2022/04/21 05:40:03;;;;;;;;;;;;;;;;;;5116535;27;1139;-74
2022/04/21 05:42:34;;;;;;;;;;;;;;;;;;5107896;28;1958;-74
2022/04/21 05:45:00;;;;;;;;;;;;;;;;;;5105646;28;1191;-75
2022/04/21 05:47:36;;;;;;;;;;;;;;;;;;5103604;28;1289;-74
2022/04/21 05:50:01;;;;;;;;;;;;;;;;;;5104865;27;1194;-76
2022/04/21 05:52:29;;;;;;;;;;;;;;;;;;5103985;28;1254;-74
2022/04/21 05:54:54;;;;;;;;;;;;;;;;;;5103114;28;1223;-74
2022/04/21 05:57:24;;;;;;;;;;;;;;;;;;5095102;28;1219;-75
2022/04/21 05:59:49;;;;;;;;;;;;;;;;;;5122351;28;1485;-75
2022/04/21 06:02:15;;;;;;;;;;;;;;;;;;5125483;28;1936;-75
2022/04/21 06:04:40;;;;;;;;;;;;;;;;;;5107835;28;1238;-76
2022/04/21 06:07:05;;;;;;;;;;;;;;;;;;5090049;28;1258;-74
2022/04/21 06:09:31;;;;;;;;;;;;;;;;;;5085958;28;1320;-73
2022/04/21 06:11:58;;;;;;;;;;;;;;;;;;5121901;28;1193;-75
2022/04/21 06:14:26;;;;;;;;;;;;;;;;;;5125578;27;1214;-73
2022/04/21 06:16:51;;;;;;;;;;;;;;;;;;5104749;28;1301;-75
2022/04/21 06:19:16;;;;;;;;;;;;;;;;;;5096834;28;1160;-74
2022/04/21 06:21:41;;;;;;;;;;;;;;;;;;5088783;28;1273;-75
2022/04/21 06:24:06;;;;;;;;;;;;;;;;;;5084303;28;1889;-75
2022/04/21 06:26:38;;;;;;;;;;;;;;;;;;5107315;28;1223;-75
2022/04/21 06:29:03;;;;;;;;;;;;;;;;;;5105527;28;1271;-75
2022/04/21 06:31:29;;;;;;;;;;;;;;;;;;5108351;28;1215;-76
2022/04/21 06:33:54;;;;;;;;;;;;;;;;;;5099353;28;1159;-75
2022/04/21 06:36:19;;;;;;;;;;;;;;;;;;5110097;28;1259;-75
2022/04/21 06:38:45;;;;;;;;;;;;;;;;;;5107546;27;1029;-74
2022/04/21 06:41:11;;;;;;;;;;;;;;;;;;5130065;27;1162;-74
2022/04/21 06:49:22;;;;;;;;;;;;;;;;;;5064919;28;1164;-75
2022/04/21 06:51:47;;;;;;;;;;;;;;;;;;5070795;28;1196;-75
2022/04/21 06:54:12;;;;;;;;;;;;;;;;;;5119646;27;1238;-75
2022/04/21 06:56:39;;;;;;;;;;;;;;;;;;5109536;27;1347;-75
2022/04/21 06:59:05;;;;;;;;;;;;;;;;;;5096089;28;1349;-75
2022/04/21 07:01:31;;;;;;;;;;;;;;;;;;5110028;27;1297;-75
2022/04/21 07:03:56;;;;;;;;;;;;;;;;;;5095710;28;1959;-75
2022/04/21 07:06:21;;;;;;;;;;;;;;;;;;5102800;27;1209;-75
2022/04/21 07:08:48;;;;;;;;;;;;;;;;;;5116139;27;1234;-76
2022/04/21 07:11:15;;;;;;;;;;;;;;;;;;5097319;27;1332;-75
2022/04/21 07:13:46;;;;;;;;;;;;;;;;;;5115238;27;1321;-75
2022/04/21 07:16:11;;;;;;;;;;;;;;;;;;5127670;27;1144;-75
2022/04/21 07:18:45;;;;;;;;;;;;;;;;;;5120382;27;1175;-75
2022/04/21 07:21:11;;;;;;;;;;;;;;;;;;5128132;27;1265;-76
2022/04/21 07:23:45;;;;;;;;;;;;;;;;;;5103755;27;1948;-75
2022/04/21 07:26:10;;;;;;;;;;;;;;;;;;5127750;27;1385;-74
2022/04/21 07:28:44;;;;;;;;;;;;;;;;;;5120643;27;1138;-75
2022/04/21 07:31:10;;;;;;;;;;;;;;;;;;5113840;27;1150;-75
2022/04/21 07:33:47;;;;;;;;;;;;;;;;;;5099809;27;1067;-76
2022/04/21 07:36:12;;;;;;;;;;;;;;;;;;5119711;27;1325;-76
2022/04/21 07:38:42;;;;;;;;;;;;;;;;;;5100633;27;1227;-76
2022/04/21 07:41:07;;;;;;;;;;;;;;;;;;5126588;27;1400;-79
2022/04/21 07:43:33;;;;;;;;;;;;;;;;;;5125612;27;1960;-76
2022/04/21 07:45:58;;;;;;;;;;;;;;;;;;5088896;28;1218;-76
2022/04/21 07:51:12;;;;;;;;;;;;;;;;;;5086340;27;1383;-75
2022/04/21 07:53:39;;;;;;;;;;;;;;;;;;5098784;28;1233;-77
2022/04/21 07:56:04;;;;;;;;;;;;;;;;;;5090400;27;1169;-75
2022/04/21 07:58:29;;;;;;;;;;;;;;;;;;5128003;27;1155;-75
2022/04/21 08:00:55;;;;;;;;;;;;;;;;;;5125625;27;1295;-75
2022/04/21 08:04:03;;;;;;;;;;;;;;;;;;5108129;28;1898;-75
2022/04/21 08:06:21;;;;;;;;;;;;;;;;;;5108988;27;1126;-76
2022/04/21 08:08:47;;;;;;;;;;;;;;;;;;5124609;27;1182;-76
2022/04/21 08:11:12;;;;;;;;;;;;;;;;;;5117298;27;1186;-75
2022/04/21 08:13:37;;;;;;;;;;;;;;;;;;5097707;27;1292;-73
2022/04/21 08:16:02;;;;;;;;;;;;;;;;;;5128551;27;1123;-75
2022/04/21 08:18:33;;;;;;;;;;;;;;;;;;5125698;27;1170;-77
2022/04/21 08:20:59;;;;;;;;;;;;;;;;;;5106713;27;1213;-75
2022/04/21 08:23:25;;;;;;;;;;;;;;;;;;5102825;27;1893;-76
2022/04/21 08:34:03;;;;;;;;;;;;;;;;;;5112806;27;1166;-74
2022/04/21 08:36:28;;;;;;;;;;;;;;;;;;5103423;27;1195;-76
2022/04/21 08:38:53;;;;;;;;;;;;;;;;;;5120898;27;842;-76
2022/04/21 08:41:20;;;;;;;;;;;;;;;;;;5127539;27;1341;-76
2022/04/21 08:43:47;;;;;;;;;;;;;;;;;;5122191;27;1955;-75
2022/04/21 08:46:17;;;;;;;;;;;;;;;;;;5125418;27;971;-76
2022/04/21 08:48:46;;;;;;;;;;;;;;;;;;5123978;27;942;-75
2022/04/21 08:51:13;;;;;;;;;;;;;;;;;;5125663;27;1200;-76
2022/04/21 08:53:38;;;;;;;;;;;;;;;;;;5125528;27;1026;-75
2022/04/21 08:56:03;;;;;;;;;;;;;;;;;;5123659;27;1161;-76
2022/04/21 08:58:29;;;;;;;;;;;;;;;;;;5105172;27;1174;-75
2022/04/21 09:00:57;;;;;;;;;;;;;;;;;;5106173;27;1178;-76
2022/04/21 09:03:42;;;;;;;;;;;;;;;;;;5124883;27;1948;-77
2022/04/21 09:06:09;;;;;;;;;;;;;;;;;;5125568;27;1107;-77
2022/04/21 09:08:35;;;;;;;;;;;;;;;;;;5122532;27;1383;-75
2022/04/21 09:11:01;;;;;;;;;;;;;;;;;;5098863;28;1348;-76
2022/04/21 09:13:34;;;;;;;;;;;;;;;;;;5115873;27;1196;-75
2022/04/21 09:16:03;;;;;;;;;;;;;;;;;;5109607;27;1354;-75
2022/04/21 09:18:42;;;;;;;;;;;;;;;;;;5121375;27;1341;-76
2022/04/21 09:21:08;;;;;;;;;;;;;;;;;;5123246;27;1193;-76
2022/04/21 09:23:33;;;;;;;;;;;;;;;;;;5106080;27;1894;-75
2022/04/21 09:26:05;;;;;;;;;;;;;;;;;;5122700;27;1231;-77
2022/04/21 09:28:30;;;;;;;;;;;;;;;;;;5124620;27;1218;-76
2022/04/21 09:30:56;;;;;;;;;;;;;;;;;;5122280;27;1043;-76
2022/04/21 09:33:26;;;;;;;;;;;;;;;;;;5087445;28;1200;-74
2022/04/21 09:35:55;;;;;;;;;;;;;;;;;;5102676;28;1240;-77
2022/04/21 09:38:30;;;;;;;;;;;;;;;;;;5123144;27;1103;-77
2022/04/21 09:41:03;;;;;;;;;;;;;;;;;;5123587;27;1468;-76
2022/04/21 09:43:30;;;;;;;;;;;;;;;;;;5114722;27;1918;-75
2022/04/21 09:46:25;;;;;;;;;;;;;;;;;;5114444;27;1278;-78
2022/04/21 09:48:56;;;;;;;;;;;;;;;;;;5104417;27;1382;-77
2022/04/21 09:51:25;;;;;;;;;;;;;;;;;;5124706;27;1286;-80
2022/04/21 09:54:01;;;;;;;;;;;;;;;;;;5111686;27;1412;-81
2022/04/21 09:56:31;;;;;;;;;;;;;;;;;;5120060;27;1214;-79
2022/04/21 09:58:56;;;;;;;;;;;;;;;;;;5115078;27;1234;-81
2022/04/21 10:01:21;;;;;;;;;;;;;;;;;;5124909;28;1217;-83
2022/04/21 10:03:48;;;;;;;;;;;;;;;;;;5103793;28;1949;-80
2022/04/21 10:06:16;;;;;;;;;;;;;;;;;;5110611;28;1218;-80
2022/04/21 10:08:42;;;;;;;;;;;;;;;;;;5124907;27;1360;-82
2022/04/21 10:11:08;;;;;;;;;;;;;;;;;;5108828;27;1365;-80
2022/04/21 10:13:33;;;;;;;;;;;;;;;;;;5117315;28;1105;-81
2022/04/21 10:15:59;;;;;;;;;;;;;;;;;;5113138;28;1207;-82
2022/04/21 10:18:45;;;;;;;;;;;;;;;;;;5112012;28;1183;-82
2022/04/21 10:21:11;;;;;;;;;;;;;;;;;;5107054;28;1148;-84
2022/04/21 10:23:36;;;;;;;;;;;;;;;;;;5094268;28;1948;-81
2022/04/21 10:26:03;;;;;;;;;;;;;;;;;;5107673;28;1146;-78
2022/04/21 10:28:35;;;;;;;;;;;;;;;;;;5120958;28;1215;-79
2022/04/21 10:31:23;;;;;;;;;;;;;;;;;;5102381;28;1216;-80
2022/04/21 10:34:17;;;;;;;;;;;;;;;;;;5121486;28;1217;-81
2022/04/21 10:36:47;;;;;;;;;;;;;;;;;;5112544;28;1325;-82
2022/04/21 10:39:22;;;;;;;;;;;;;;;;;;5122055;28;1185;-80
2022/04/21 10:41:47;;;;;;;;;;;;;;;;;;5125746;28;1421;-81
2022/04/21 10:44:16;;;;;;;;;;;;;;;;;;5106104;28;1937;-84
2022/04/21 10:46:42;;;;;;;;;;;;;;;;;;5107766;28;1229;-82
2022/04/21 10:49:09;;;;;;;;;;;;;;;;;;5103165;28;1332;-83
2022/04/21 10:57:12;;;;;;;;;;;;;;;;;;5108289;28;1395;-82
2022/04/21 10:57:28;;;;;;;;;;;;;;;;;;5126723;28;1007;-80
2022/04/21 11:00:05;;;;;;;;;;;;;;;;;;5123923;28;1202;-80
2022/04/21 11:02:44;;;;;;;;;;;;;;;;;;5115831;28;1902;-79
2022/04/21 11:05:21;;;;;;;;;;;;;;;;;;5110523;28;1167;-84
2022/04/21 11:07:51;;;;;;;;;;;;;;;;;;5118625;28;1190;-83
2022/04/21 11:10:26;;;;;;;;;;;;;;;;;;5109488;28;1450;-85
2022/04/21 11:12:52;;;;;;;;;;;;;;;;;;5112862;27;1233;-82
2022/04/21 11:15:37;;;;;;;;;;;;;;;;;;5097540;27;1190;-78
2022/04/21 11:18:09;;;;;;;;;;;;;;;;;;5117568;27;1284;-81
2022/04/21 11:20:35;;;;;;;;;;;;;;;;;;5126412;27;1143;-78
2022/04/21 11:23:03;;;;;;;;;;;;;;;;;;5121011;27;1937;-79
2022/04/21 11:25:35;;;;;;;;;;;;;;;;;;5122193;27;1158;-80
2022/04/21 11:28:03;;;;;;;;;;;;;;;;;;5122837;27;1262;-79
2022/04/21 11:30:30;;;;;;;;;;;;;;;;;;5118031;27;1222;-79
2022/04/21 11:32:56;;;;;;;;;;;;;;;;;;5115064;27;1191;-79
2022/04/21 11:35:22;;;;;;;;;;;;;;;;;;5114516;27;1182;-79
2022/04/21 11:37:47;;;;;;;;;;;;;;;;;;5111049;27;1305;-80
2022/04/21 11:40:32;;;;;;;;;;;;;;;;;;5130781;27;1479;-80
2022/04/21 11:43:15;;;;;;;;;;;;;;;;;;5122916;27;1910;-80
2022/04/21 11:45:44;;;;;;;;;;;;;;;;;;5117636;27;1198;-80
2022/04/21 11:48:13;;;;;;;;;;;;;;;;;;5120107;27;1220;-79
2022/04/21 11:50:42;;;;;;;;;;;;;;;;;;5126630;27;1202;-79
2022/04/21 11:53:23;;;;;;;;;;;;;;;;;;5125457;27;1415;-81
2022/04/21 11:55:50;;;;;;;;;;;;;;;;;;5118151;27;1202;-80
2022/04/21 11:58:29;;;;;;;;;;;;;;;;;;5112124;27;1028;-79
2022/04/21 12:06:39;;;;;;;;;;;;;;;;;;5108137;28;1159;-80
2022/04/21 12:09:08;;;;;;;;;;;;;;;;;;5116872;27;1317;-80
2022/04/21 12:11:33;;;;;;;;;;;;;;;;;;5088839;28;1309;-80
2022/04/21 12:13:59;;;;;;;;;;;;;;;;;;5110500;27;1140;-80
2022/04/21 12:16:36;;;;;;;;;;;;;;;;;;5125541;27;1107;-80
2022/04/21 12:19:35;;;;;;;;;;;;;;;;;;5112098;27;1210;-81
2022/04/21 12:22:08;;;;;;;;;;;;;;;;;;5089172;27;1228;-81
2022/04/21 12:24:33;;;;;;;;;;;;;;;;;;5114934;27;1885;-79
2022/04/21 12:27:10;;;;;;;;;;;;;;;;;;5106014;28;1320;-80
2022/04/21 12:29:44;;;;;;;;;;;;;;;;;;5107994;28;1265;-80
2022/04/21 12:32:10;;;;;;;;;;;;;;;;;;5108685;27;1314;-79
2022/04/21 12:34:39;;;;;;;;;;;;;;;;;;5096329;28;1201;-80
2022/04/21 12:37:13;;;;;;;;;;;;;;;;;;5120761;27;1270;-83
2022/04/21 12:39:38;;;;;;;;;;;;;;;;;;5122834;27;1308;-79
2022/04/21 12:42:04;;;;;;;;;;;;;;;;;;5107957;27;1291;-73
2022/04/21 12:44:31;;;;;;;;;;;;;;;;;;5100722;28;2249;-74
2022/04/21 12:47:03;;;;;;;;;;;;;;;;;;5108034;28;1179;-74
2022/04/21 12:49:55;;;;;;;;;;;;;;;;;;5119840;27;1102;-75
2022/04/21 12:52:39;;;;;;;;;;;;;;;;;;5119484;27;1203;-74
2022/04/21 12:55:07;;;;;;;;;;;;;;;;;;5121463;27;1306;-74
2022/04/21 12:57:34;;;;;;;;;;;;;;;;;;5124571;27;1300;-75
2022/04/21 12:59:59;;;;;;;;;;;;;;;;;;5122093;27;1180;-74
2022/04/21 13:02:24;;;;;;;;;;;;;;;;;;5106171;27;1187;-74
2022/04/21 13:04:50;;;;;;;;;;;;;;;;;;5118801;27;1941;-72
2022/04/21 13:07:15;;;;;;;;;;;;;;;;;;5105871;27;1293;-75
2022/04/21 13:09:41;;;;;;;;;;;;;;;;;;5125116;27;1174;-74
2022/04/21 13:12:15;;;;;;;;;;;;;;;;;;5124237;27;1366;-74
2022/04/21 13:14:41;;;;;;;;;;;;;;;;;;5124894;27;1178;-75
2022/04/21 13:17:07;;;;;;;;;;;;;;;;;;5124349;27;1092;-75
2022/04/21 13:19:33;;;;;;;;;;;;;;;;;;5119106;27;1176;-74
2022/04/21 13:21:59;;;;;;;;;;;;;;;;;;5126270;27;1152;-79
2022/04/21 13:24:25;;;;;;;;;;;;;;;;;;5111698;27;1889;-79
2022/04/21 13:26:54;;;;;;;;;;;;;;;;;;5090446;28;1258;-83
2022/04/21 13:29:20;;;;;;;;;;;;;;;;;;5113180;27;1179;-87
2022/04/21 13:34:29;;;;;;;;;;;;;;;;;;5119847;27;991;-90
2022/04/21 13:36:55;;;;;;;;;;;;;;;;;;5104789;28;1187;-92
2022/04/21 13:39:20;;;;;;;;;;;;;;;;;;5108375;27;1345;-89
2022/04/21 13:41:48;;;;;;;;;;;;;;;;;;5102994;28;1444;-92
2022/04/21 13:44:15;;;;;;;;;;;;;;;;;;5106157;28;1976;-85
2022/04/21 13:46:40;;;;;;;;;;;;;;;;;;5109413;28;1281;-86
2022/04/21 13:49:05;;;;;;;;;;;;;;;;;;5111585;27;1179;-85
2022/04/21 13:51:31;;;;;;;;;;;;;;;;;;5112467;28;1180;-86
2022/04/21 13:53:56;;;;;;;;;;;;;;;;;;5122798;27;1298;-86
2022/04/21 13:56:22;;;;;;;;;;;;;;;;;;5112461;27;1269;-81
2022/04/21 13:58:47;;;;;;;;;;;;;;;;;;5105440;28;1294;-75
2022/04/21 14:01:14;;;;;;;;;;;;;;;;;;5104877;28;1095;-74
2022/04/21 14:03:40;;;;;;;;;;;;;;;;;;5099820;28;1943;-72
2022/04/21 14:06:09;;;;;;;;;;;;;;;;;;5099283;27;1096;-73
2022/04/21 14:08:35;;;;;;;;;;;;;;;;;;5113197;28;1191;-73
2022/04/21 14:11:00;;;;;;;;;;;;;;;;;;5118653;28;1141;-73
2022/04/21 14:13:27;;;;;;;;;;;;;;;;;;5121854;28;1198;-72
2022/04/21 14:15:52;;;;;;;;;;;;;;;;;;5124584;28;1195;-72
2022/04/21 14:18:18;;;;;;;;;;;;;;;;;;5121022;28;1306;-73
2022/04/21 14:20:43;;;;;;;;;;;;;;;;;;5119079;28;1263;-73
2022/04/21 14:23:08;;;;;;;;;;;;;;;;;;5122822;27;1894;-72
2022/04/21 14:25:33;;;;;;;;;;;;;;;;;;5123850;27;1230;-73
2022/04/21 14:27:59;;;;;;;;;;;;;;;;;;5123854;28;1269;-73
2022/04/21 14:30:25;;;;;;;;;;;;;;;;;;5103384;28;1275;-74
2022/04/21 14:32:50;;;;;;;;;;;;;;;;;;5124901;27;1214;-73
2022/04/21 14:35:16;;;;;;;;;;;;;;;;;;5116615;28;1248;-73
2022/04/21 14:45:53;;;;;;;;;;;;;;;;;;5106875;27;1004;-74
2022/04/21 14:48:22;;;;;;;;;;;;;;;;;;5104628;27;1150;-73
2022/04/21 14:50:48;;;;;;;;;;;;;;;;;;5085941;27;1117;-75
2022/04/21 14:53:14;;;;;;;;;;;;;;;;;;5114022;27;1197;-73
2022/04/21 14:55:40;;;;;;;;;;;;;;;;;;5102858;27;1524;-74
2022/04/21 14:58:05;;;;;;;;;;;;;;;;;;5120854;27;1084;-74
2022/04/21 15:00:31;;;;;;;;;;;;;;;;;;5124987;27;1424;-73
2022/04/21 15:02:56;;;;;;;;;;;;;;;;;;5089435;28;1935;-74
2022/04/21 15:05:22;;;;;;;;;;;;;;;;;;5083086;28;1334;-75
2022/04/21 15:07:47;;;;;;;;;;;;;;;;;;5103276;27;1384;-74
2022/04/21 15:10:13;;;;;;;;;;;;;;;;;;5107453;27;1129;-72
2022/04/21 15:12:38;;;;;;;;;;;;;;;;;;5124658;27;1253;-73
2022/04/21 15:15:03;;;;;;;;;;;;;;;;;;5126916;27;1154;-74
2022/04/21 15:17:29;;;;;;;;;;;;;;;;;;5125557;27;1190;-73
2022/04/21 15:19:54;;;;;;;;;;;;;;;;;;5104604;27;1249;-75
2022/04/21 15:22:22;;;;;;;;;;;;;;;;;;5117044;27;1297;-74
2022/04/21 15:24:52;;;;;;;;;;;;;;;;;;5123827;27;1886;-75
2022/04/21 15:27:18;;;;;;;;;;;;;;;;;;5128363;27;1096;-73
2022/04/21 15:29:43;;;;;;;;;;;;;;;;;;5133208;27;1103;-73
2022/04/21 15:32:09;;;;;;;;;;;;;;;;;;5108812;27;1203;-74
2022/04/21 15:34:34;;;;;;;;;;;;;;;;;;5075101;28;1204;-71
2022/04/21 15:37:00;;;;;;;;;;;;;;;;;;5068315;28;1274;-72
2022/04/21 15:39:27;;;;;;;;;;;;;;;;;;5079868;28;1531;-72
2022/04/21 15:41:52;;;;;;;;;;;;;;;;;;5102003;28;1218;-72
2022/04/21 15:44:17;;;;;;;;;;;;;;;;;;5099018;28;1913;-72
2022/04/21 15:46:43;;;;;;;;;;;;;;;;;;5100169;28;1213;-72
2022/04/21 15:49:09;;;;;;;;;;;;;;;;;;5077087;28;1210;-72
2022/04/21 15:51:34;;;;;;;;;;;;;;;;;;5096236;28;1097;-72
2022/04/21 15:59:27;;;;;;;;;;;;;;;;;;5117559;27;1032;-73
2022/04/21 16:01:52;;;;;;;;;;;;;;;;;;5102215;27;1373;-73
2022/04/21 16:04:18;;;;;;;;;;;;;;;;;;5084925;28;1885;-73
2022/04/21 16:06:43;;;;;;;;;;;;;;;;;;5098817;28;1318;-74
2022/04/21 16:09:08;;;;;;;;;;;;;;;;;;5096359;28;1454;-73
2022/04/21 16:11:34;;;;;;;;;;;;;;;;;;5100074;28;1096;-72
2022/04/21 16:13:59;;;;;;;;;;;;;;;;;;5097633;28;1133;-72
2022/04/21 16:16:28;;;;;;;;;;;;;;;;;;5084527;28;1234;-72
2022/04/21 16:18:54;;;;;;;;;;;;;;;;;;5114132;27;1174;-71
2022/04/21 16:21:19;;;;;;;;;;;;;;;;;;5105793;27;1139;-72
2022/04/21 16:23:45;;;;;;;;;;;;;;;;;;5113575;27;1966;-72
2022/04/21 16:26:10;;;;;;;;;;;;;;;;;;5099924;27;1199;-72
2022/04/21 16:28:36;;;;;;;;;;;;;;;;;;5116781;27;1285;-72
2022/04/21 16:31:01;;;;;;;;;;;;;;;;;;5115460;27;1152;-72
2022/04/21 16:33:27;;;;;;;;;;;;;;;;;;5085095;28;1348;-72
2022/04/21 16:35:54;;;;;;;;;;;;;;;;;;5118797;27;1159;-73
2022/04/21 16:38:19;;;;;;;;;;;;;;;;;;5107703;27;1234;-72
2022/04/21 16:40:45;;;;;;;;;;;;;;;;;;5112080;27;1335;-73
2022/04/21 16:43:10;;;;;;;;;;;;;;;;;;5125560;27;1921;-72
2022/04/21 16:45:35;;;;;;;;;;;;;;;;;;5116671;27;1086;-73
2022/04/21 16:48:01;;;;;;;;;;;;;;;;;;5088191;28;1356;-72
2022/04/21 16:50:27;;;;;;;;;;;;;;;;;;5101328;27;1420;-73
2022/04/21 16:52:52;;;;;;;;;;;;;;;;;;5101363;27;1124;-72
2022/04/21 16:55:17;;;;;;;;;;;;;;;;;;5107507;27;1203;-73
2022/04/21 16:57:43;;;;;;;;;;;;;;;;;;5121681;27;1173;-73
2022/04/21 17:00:09;;;;;;;;;;;;;;;;;;5125549;27;1227;-73
2022/04/21 17:05:18;;;;;;;;;;;;;;;;;;5125104;27;1027;-72
2022/04/21 17:07:43;;;;;;;;;;;;;;;;;;5126837;27;1157;-71
2022/04/21 17:10:09;;;;;;;;;;;;;;;;;;5129295;27;1428;-73
2022/04/21 17:12:34;;;;;;;;;;;;;;;;;;5129844;27;1177;-73
2022/04/21 17:15:00;;;;;;;;;;;;;;;;;;5129419;27;1184;-73
2022/04/21 17:17:25;;;;;;;;;;;;;;;;;;5126513;27;1167;-73
2022/04/21 17:19:50;;;;;;;;;;;;;;;;;;5111343;27;1203;-72
2022/04/21 17:22:19;;;;;;;;;;;;;;;;;;5101078;28;1218;-73
2022/04/21 17:24:45;;;;;;;;;;;;;;;;;;5102758;28;1995;-73
2022/04/21 17:27:11;;;;;;;;;;;;;;;;;;5115652;27;1107;-75
2022/04/21 17:29:36;;;;;;;;;;;;;;;;;;5106181;27;1178;-75
2022/04/21 17:32:02;;;;;;;;;;;;;;;;;;5104656;27;1361;-75
2022/04/21 17:34:28;;;;;;;;;;;;;;;;;;5083905;28;1222;-74
2022/04/21 17:36:54;;;;;;;;;;;;;;;;;;5117428;27;1206;-74
2022/04/21 17:39:19;;;;;;;;;;;;;;;;;;5102321;27;1202;-74
2022/04/21 17:41:44;;;;;;;;;;;;;;;;;;5117592;27;1266;-76
2022/04/21 17:44:11;;;;;;;;;;;;;;;;;;5120377;27;1917;-75
2022/04/21 17:46:36;;;;;;;;;;;;;;;;;;5105290;27;1147;-74
2022/04/21 17:49:02;;;;;;;;;;;;;;;;;;5109847;27;1286;-75
2022/04/21 17:51:27;;;;;;;;;;;;;;;;;;5114021;27;1386;-73
2022/04/21 17:53:56;;;;;;;;;;;;;;;;;;5118288;27;1143;-74
2022/04/21 17:56:21;;;;;;;;;;;;;;;;;;5125381;27;1234;-74
2022/04/21 17:58:46;;;;;;;;;;;;;;;;;;5102451;28;1153;-76
2022/04/21 18:01:11;;;;;;;;;;;;;;;;;;5107738;28;1258;-75
2022/04/21 18:03:37;;;;;;;;;;;;;;;;;;5122593;27;1906;-73
2022/04/21 18:06:02;;;;;;;;;;;;;;;;;;5123430;27;1186;-75
2022/04/21 18:08:27;;;;;;;;;;;;;;;;;;5124121;27;1143;-74
2022/04/21 18:10:53;;;;;;;;;;;;;;;;;;5110685;28;1191;-74
2022/04/21 18:13:19;;;;;;;;;;;;;;;;;;5111001;28;1100;-75
2022/04/21 18:15:44;;;;;;;;;;;;;;;;;;5109735;28;1144;-74